| time (UTC) | temp F | wind direction | speed MPH | gust MPH | rain 1hr in | rain 24hr in | rain mn in | humidity % | barometer mb |
| 20260502184149 | 64 | 223 | 9.0 | 19.0 | 0.00 | 0.00 | 0.00 | 30 | 1013.3 |
| 20260502183650 | 65 | 237 | 11.0 | 19.0 | 0.00 | 0.00 | 0.00 | 30 | 1013.4 |
| 20260502183148 | 64 | 233 | 13.0 | 19.0 | 0.00 | 0.00 | 0.00 | 36 | 1013.6 |
| 20260502182648 | 61 | 235 | 11.0 | 19.0 | 0.00 | 0.00 | 0.00 | 35 | 1013.7 |
| 20260502182149 | 61 | 235 | 11.0 | 19.0 | 0.00 | 0.00 | 0.00 | 35 | 1013.9 |
| 20260502181648 | 61 | 241 | 8.0 | 18.0 | 0.00 | 0.00 | 0.00 | 37 | 1013.9 |
| 20260502181148 | 60 | 245 | 11.0 | 24.0 | 0.00 | 0.00 | 0.00 | 32 | 1014.1 |
| 20260502180648 | 62 | 219 | 10.0 | 24.0 | 0.00 | 0.00 | 0.00 | 31 | 1014.1 |
| 20260502180148 | 63 | 251 | 12.0 | 20.0 | 0.00 | 0.00 | 0.00 | 33 | 1014.2 |
| 20260502170146 | 60 | 230 | 11.0 | 16.0 | 0.00 | 0.00 | 0.00 | 37 | 1015.2 |
| 20260502164145 | 58 | 238 | 7.0 | 17.0 | 0.00 | 0.00 | 0.00 | 37 | 1015.4 |
| 20260502163924 | 58 | 265 | 9.0 | 19.0 | 0.00 | 0.00 | 0.00 | 32 | 1015.5 |
| 20260502163145 | 58 | 261 | 13.0 | 19.0 | 0.00 | 0.00 | 0.00 | 37 | 1015.5 |
| 20260502162646 | 58 | 180 | 7.0 | 16.0 | 0.00 | 0.00 | 0.00 | 33 | 1015.5 |
| 20260502162146 | 58 | 231 | 11.0 | 17.0 | 0.00 | 0.00 | 0.00 | 37 | 1015.7 |
| 20260502161647 | 58 | 240 | 11.0 | 17.0 | 0.00 | 0.00 | 0.00 | 36 | 1015.8 |
| 20260502161146 | 57 | 230 | 10.0 | 17.0 | 0.00 | 0.00 | 0.00 | 35 | 1015.8 |
| 20260502160646 | 57 | 285 | 12.0 | 17.0 | 0.00 | 0.00 | 0.00 | 33 | 1015.9 |
| 20260502160424 | 57 | 223 | 9.0 | 16.0 | 0.00 | 0.00 | 0.00 | 35 | 1016.0 |
| 20260502151639 | 55 | 210 | 9.0 | 17.0 | 0.00 | 0.00 | 0.00 | 39 | 1016.6 |
| 20260502151139 | 55 | 241 | 11.0 | 15.0 | 0.00 | 0.00 | 0.00 | 41 | 1016.8 |
| 20260502150639 | 54 | 234 | 9.0 | 15.0 | 0.00 | 0.00 | 0.00 | 39 | 1016.7 |
| 20260502150140 | 54 | 288 | 10.0 | 15.0 | 0.00 | 0.00 | 0.00 | 40 | 1016.8 |
| 20260502130634 | 42 | 288 | 4.0 | 6.0 | 0.00 | 0.00 | 0.00 | 67 | 1017.6 |
| 20260502123628 | 36 | 264 | 3.0 | 4.0 | 0.00 | 0.00 | 0.00 | 82 | 1017.7 |
| 20260502123128 | 35 | 278 | 3.0 | 4.0 | 0.00 | 0.00 | 0.00 | 83 | 1017.7 |
| 20260502122625 | 33 | 283 | 2.0 | 4.0 | 0.00 | 0.00 | 0.00 | 81 | 1017.9 |
| 20260502122126 | 33 | 276 | 4.0 | 4.0 | 0.00 | 0.00 | 0.00 | 82 | 1017.9 |
| 20260502121647 | 32 | 288 | 3.0 | 4.0 | 0.00 | 0.00 | 0.00 | 83 | 1017.9 |
| 20260502120901 | 31 | 289 | 3.0 | 5.0 | 0.00 | 0.00 | 0.00 | 81 | 1017.7 |
| 20260502120125 | 30 | 279 | 4.0 | 5.0 | 0.00 | 0.00 | 0.00 | 82 | 1017.9 |
| 20260502115641 | 29 | 288 | 4.0 | 4.0 | 0.00 | 0.00 | 0.00 | 82 | 1017.9 |
| 20260502114623 | 29 | 288 | 3.0 | 4.0 | 0.00 | 0.00 | 0.00 | 83 | 1017.9 |
| 20260502114124 | 29 | 286 | 3.0 | 4.0 | 0.00 | 0.00 | 0.00 | 83 | 1017.7 |
| 20260502113624 | 29 | 296 | 3.0 | 3.0 | 0.00 | 0.00 | 0.00 | 83 | 1017.6 |
| 20260502113400 | 30 | 290 | 2.0 | 3.0 | 0.00 | 0.00 | 0.00 | 84 | 1017.7 |
| 20260502112625 | 29 | 290 | 2.0 | 4.0 | 0.00 | 0.00 | 0.00 | 83 | 1017.6 |
| 20260502112124 | 29 | 289 | 2.0 | 5.0 | 0.00 | 0.00 | 0.00 | 81 | 1017.6 |
| 20260502111625 | 29 | 293 | 4.0 | 5.0 | 0.00 | 0.00 | 0.00 | 78 | 1017.6 |
| 20260502111126 | 29 | 279 | 4.0 | 6.0 | 0.00 | 0.00 | 0.00 | 79 | 1017.7 |
| 20260502110624 | 29 | 299 | 4.0 | 7.0 | 0.00 | 0.00 | 0.00 | 80 | 1017.7 |
| 20260502110125 | 28 | 276 | 6.0 | 7.0 | 0.00 | 0.00 | 0.00 | 80 | 1017.7 |
| 20260502105905 | 28 | 279 | 6.0 | 7.0 | 0.00 | 0.00 | 0.00 | 80 | 1017.9 |
| 20260502105125 | 28 | 275 | 4.0 | 7.0 | 0.00 | 0.00 | 0.00 | 79 | 1017.7 |
| 20260502104903 | 28 | 283 | 3.0 | 4.0 | 0.00 | 0.00 | 0.00 | 76 | 1017.7 |
| 20260502104407 | 28 | 289 | 3.0 | 3.0 | 0.00 | 0.00 | 0.00 | 76 | 1017.7 |
| 20260502103624 | 28 | 290 | 2.0 | 3.0 | 0.00 | 0.00 | 0.00 | 78 | 1017.7 |
| 20260502103124 | 29 | 290 | 2.0 | 3.0 | 0.00 | 0.00 | 0.00 | 78 | 1017.6 |
| 20260502102624 | 29 | 290 | 2.0 | 3.0 | 0.00 | 0.00 | 0.00 | 79 | 1017.7 |
| 20260502102401 | 29 | 295 | 2.0 | 4.0 | 0.00 | 0.00 | 0.00 | 80 | 1017.6 |
| 20260502101624 | 29 | 295 | 3.0 | 4.0 | 0.00 | 0.00 | 0.00 | 79 | 1017.7 |
| 20260502101125 | 29 | 307 | 3.0 | 4.0 | 0.00 | 0.00 | 0.00 | 76 | 1017.7 |
| 20260502100624 | 29 | 313 | 3.0 | 4.0 | 0.00 | 0.00 | 0.00 | 76 | 1017.6 |
| 20260502100125 | 29 | 313 | 4.0 | 4.0 | 0.00 | 0.00 | 0.00 | 82 | 1017.7 |
| 20260502091125 | 30 | 338 | 2.0 | 4.0 | 0.00 | 0.00 | 0.00 | 79 | 1017.6 |
| 20260502090626 | 30 | 338 | 3.0 | 4.0 | 0.00 | 0.00 | 0.00 | 76 | 1017.6 |
| 20260502090127 | 29 | 345 | 3.0 | 4.0 | 0.00 | 0.00 | 0.00 | 79 | 1017.5 |
| 20260502071124 | 31 | 313 | 4.0 | 5.0 | 0.00 | 0.00 | 0.00 | 75 | 1018.1 |
| 20260502070624 | 31 | 310 | 4.0 | 5.0 | 0.00 | 0.00 | 0.00 | 74 | 1018.1 |
| 20260502070124 | 31 | 319 | 4.0 | 5.0 | 0.00 | 0.00 | 0.00 | 75 | 1018.1 |
| 20260502065624 | 32 | 313 | 4.0 | 5.0 | 0.00 | 0.00 | 0.00 | 76 | 1018.1 |
| 20260502065356 | 32 | 314 | 4.0 | 6.0 | 0.00 | 0.00 | 0.00 | 76 | 1018.3 |
| 20260502064625 | 32 | 307 | 5.0 | 6.0 | 0.00 | 0.00 | 0.00 | 74 | 1018.3 |
| 20260502064124 | 32 | 309 | 5.0 | 6.0 | 0.00 | 0.00 | 0.00 | 78 | 1018.3 |
| 20260502063624 | 32 | 298 | 5.0 | 7.0 | 0.00 | 0.00 | 0.00 | 78 | 1018.3 |
| 20260502063124 | 32 | 289 | 6.0 | 7.0 | 0.00 | 0.00 | 0.00 | 76 | 1018.4 |
| 20260502062624 | 32 | 300 | 5.0 | 6.0 | 0.00 | 0.00 | 0.00 | 74 | 1018.3 |
| 20260502062356 | 32 | 302 | 5.0 | 6.0 | 0.00 | 0.00 | 0.00 | 71 | 1018.3 |
| 20260502061854 | 32 | 298 | 6.0 | 6.0 | 0.00 | 0.00 | 0.00 | 71 | 1018.3 |
| 20260502061124 | 32 | 290 | 6.0 | 6.0 | 0.00 | 0.00 | 0.00 | 73 | 1018.3 |
| 20260502060625 | 32 | 292 | 5.0 | 6.0 | 0.00 | 0.00 | 0.00 | 71 | 1018.2 |
| 20260502060125 | 32 | 289 | 4.0 | 5.0 | 0.00 | 0.00 | 0.00 | 70 | 1018.2 |
| 20260502055855 | 33 | 300 | 4.0 | 5.0 | 0.00 | 0.00 | 0.00 | 74 | 1018.2 |
| 20260502055125 | 33 | 293 | 5.0 | 5.0 | 0.00 | 0.00 | 0.00 | 68 | 1018.3 |
| 20260502054624 | 33 | 288 | 5.0 | 5.0 | 0.00 | 0.00 | 0.00 | 68 | 1018.2 |
| 20260502054124 | 33 | 275 | 4.0 | 5.0 | 0.00 | 0.00 | 0.00 | 72 | 1018.2 |
| 20260502053624 | 33 | 289 | 2.0 | 3.0 | 0.00 | 0.00 | 0.00 | 70 | 1018.3 |
| 20260502053126 | 33 | 307 | 2.0 | 3.0 | 0.00 | 0.00 | 0.00 | 70 | 1018.2 |
| 20260502052855 | 33 | 323 | 3.0 | 3.0 | 0.00 | 0.00 | 0.00 | 70 | 1018.3 |
| 20260502052124 | 33 | 329 | 3.0 | 3.0 | 0.00 | 0.00 | 0.00 | 70 | 1018.2 |
| 20260502051623 | 33 | 299 | 1.0 | 3.0 | 0.00 | 0.00 | 0.00 | 73 | 1018.3 |
| 20260502051142 | 33 | 299 | 2.0 | 3.0 | 0.00 | 0.00 | 0.00 | 66 | 1018.2 |
| 20260502050125 | 34 | 299 | 3.0 | 5.0 | 0.00 | 0.00 | 0.00 | 67 | 1018.3 |
| 20260502045624 | 35 | 296 | 4.0 | 5.0 | 0.00 | 0.00 | 0.00 | 66 | 1018.3 |
| 20260502045124 | 35 | 305 | 4.0 | 4.0 | 0.00 | 0.00 | 0.00 | 66 | 1018.3 |
| 20260502044624 | 35 | 312 | 4.0 | 4.0 | 0.00 | 0.00 | 0.00 | 62 | 1018.3 |
| 20260502044355 | 35 | 313 | 4.0 | 5.0 | 0.00 | 0.00 | 0.00 | 64 | 1018.2 |
| 20260502043625 | 35 | 313 | 4.0 | 5.0 | 0.00 | 0.00 | 0.00 | 64 | 1018.3 |
| 20260502043124 | 35 | 314 | 4.0 | 4.0 | 0.00 | 0.00 | 0.00 | 61 | 1018.3 |
| 20260502042623 | 36 | 316 | 4.0 | 4.0 | 0.00 | 0.00 | 0.00 | 55 | 1018.3 |
| 20260502042124 | 35 | 314 | 4.0 | 5.0 | 0.00 | 0.00 | 0.00 | 57 | 1018.3 |
| 20260502041623 | 36 | 305 | 4.0 | 5.0 | 0.00 | 0.00 | 0.00 | 62 | 1018.3 |
| 20260502041124 | 36 | 303 | 4.0 | 5.0 | 0.00 | 0.00 | 0.00 | 61 | 1018.3 |
| 20260502040855 | 36 | 303 | 4.0 | 5.0 | 0.00 | 0.00 | 0.00 | 62 | 1018.3 |
| 20260502040123 | 36 | 295 | 4.0 | 4.0 | 0.00 | 0.00 | 0.00 | 57 | 1018.5 |
| 20260502035623 | 36 | 288 | 3.0 | 4.0 | 0.00 | 0.00 | 0.00 | 59 | 1018.4 |
| 20260502035144 | 36 | 281 | 3.0 | 4.0 | 0.00 | 0.00 | 0.00 | 61 | 1018.5 |
| 20260502034124 | 37 | 327 | 3.0 | 4.0 | 0.00 | 0.00 | 0.00 | 54 | 1018.5 |
| 20260502033624 | 37 | 330 | 3.0 | 4.0 | 0.00 | 0.00 | 0.00 | 53 | 1018.5 |
| 20260502033124 | 37 | 331 | 3.0 | 4.0 | 0.00 | 0.00 | 0.00 | 57 | 1018.4 |
| 20260502032623 | 38 | 333 | 3.0 | 4.0 | 0.00 | 0.00 | 0.00 | 59 | 1018.4 |
| 20260502032358 | 38 | 330 | 3.0 | 4.0 | 0.00 | 0.00 | 0.00 | 55 | 1018.3 |
| 20260502031855 | 38 | 333 | 3.0 | 3.0 | 0.00 | 0.00 | 0.00 | 53 | 1018.4 |
| 20260502031123 | 38 | 331 | 3.0 | 3.0 | 0.00 | 0.00 | 0.00 | 57 | 1018.3 |
| 20260502030859 | 39 | 333 | 2.0 | 4.0 | 0.00 | 0.00 | 0.00 | 54 | 1018.4 |
| 20260502030124 | 39 | 338 | 2.0 | 4.0 | 0.00 | 0.00 | 0.00 | 48 | 1018.4 |
| 20260502025624 | 39 | 333 | 2.0 | 3.0 | 0.00 | 0.00 | 0.00 | 45 | 1018.3 |
| 20260502025125 | 40 | 333 | 2.0 | 3.0 | 0.00 | 0.00 | 0.00 | 44 | 1018.3 |
| 20260502024624 | 40 | 340 | 2.0 | 3.0 | 0.00 | 0.00 | 0.00 | 43 | 1018.3 |
| 20260502024124 | 40 | 340 | 2.0 | 3.0 | 0.00 | 0.00 | 0.00 | 43 | 1018.3 |
| 20260502023624 | 40 | 355 | 2.0 | 3.0 | 0.00 | 0.00 | 0.00 | 44 | 1018.3 |
| 20260502023124 | 41 | 355 | 2.0 | 3.0 | 0.00 | 0.00 | 0.00 | 46 | 1018.3 |
| 20260502022625 | 41 | 355 | 2.0 | 3.0 | 0.00 | 0.00 | 0.00 | 43 | 1018.3 |
| 20260502022125 | 42 | 355 | 2.0 | 3.0 | 0.00 | 0.00 | 0.00 | 43 | 1018.3 |
| 20260502021625 | 42 | 355 | 2.0 | 3.0 | 0.00 | 0.00 | 0.00 | 39 | 1018.2 |
| 20260502021125 | 42 | 0 | 2.0 | 4.0 | 0.00 | 0.00 | 0.00 | 39 | 1018.2 |
| 20260502020645 | 42 | 0 | 3.0 | 4.0 | 0.00 | 0.00 | 0.00 | 41 | 1018.1 |
| 20260502015931 | 43 | 0 | 3.0 | 4.0 | 0.00 | 0.00 | 0.00 | 39 | 1018.1 |
| 20260502014624 | 44 | 0 | 3.0 | 4.0 | 0.00 | 0.00 | 0.00 | 38 | 1018.0 |
| 20260502014125 | 44 | 0 | 3.0 | 4.0 | 0.00 | 0.00 | 0.00 | 39 | 1018.0 |
| 20260502013624 | 44 | 357 | 2.0 | 4.0 | 0.00 | 0.00 | 0.00 | 36 | 1017.9 |
| 20260502013124 | 45 | 0 | 3.0 | 3.0 | 0.00 | 0.00 | 0.00 | 37 | 1018.0 |
| 20260502012626 | 45 | 0 | 2.0 | 4.0 | 0.00 | 0.00 | 0.00 | 38 | 1017.9 |
| 20260502012124 | 46 | 358 | 3.0 | 5.0 | 0.00 | 0.00 | 0.00 | 37 | 1017.9 |
| 20260502011624 | 47 | 355 | 3.0 | 5.0 | 0.00 | 0.00 | 0.00 | 38 | 1017.7 |
| 20260502011355 | 47 | 0 | 4.0 | 6.0 | 0.00 | 0.00 | 0.00 | 38 | 1017.7 |
| 20260502010626 | 47 | 334 | 4.0 | 7.0 | 0.00 | 0.00 | 0.00 | 40 | 1017.9 |
| 20260502010124 | 48 | 348 | 5.0 | 7.0 | 0.00 | 0.00 | 0.00 | 37 | 1017.7 |
| 20260502005625 | 49 | 0 | 4.0 | 12.0 | 0.00 | 0.00 | 0.00 | 32 | 1017.6 |
| 20260502005403 | 49 | 6 | 4.0 | 13.0 | 0.00 | 0.00 | 0.00 | 32 | 1017.6 |
| 20260502004624 | 49 | 358 | 7.0 | 13.0 | 0.00 | 0.00 | 0.00 | 32 | 1017.5 |
| 20260502004126 | 50 | 8 | 5.0 | 12.0 | 0.00 | 0.00 | 0.00 | 30 | 1017.5 |
| 20260502003900 | 50 | 18 | 7.0 | 12.0 | 0.00 | 0.00 | 0.00 | 28 | 1017.4 |
| 20260502003124 | 50 | 0 | 8.0 | 12.0 | 0.00 | 0.00 | 0.00 | 29 | 1017.5 |
| 20260502002623 | 51 | 3 | 6.0 | 10.0 | 0.00 | 0.00 | 0.00 | 24 | 1017.5 |
| 20260502002121 | 51 | 0 | 5.0 | 10.0 | 0.00 | 0.00 | 0.00 | 29 | 1017.5 |
| 20260502001623 | 51 | 10 | 5.0 | 12.0 | 0.00 | 0.00 | 0.00 | 31 | 1017.5 |
| 20260502001124 | 51 | 0 | 8.0 | 12.0 | 0.00 | 0.00 | 0.00 | 27 | 1017.6 |
| 20260502000623 | 51 | 28 | 6.0 | 11.0 | 0.00 | 0.00 | 0.00 | 30 | 1017.5 |
| 20260502000122 | 51 | 345 | 6.0 | 14.0 | 0.00 | 0.00 | 0.00 | 27 | 1017.5 |
| 20260501235622 | 51 | 0 | 9.0 | 16.0 | 0.00 | 0.00 | 0.00 | 29 | 1017.5 |
| 20260501235354 | 51 | 343 | 13.0 | 16.0 | 0.00 | 0.00 | 0.00 | 28 | 1017.6 |
| 20260501234618 | 51 | 0 | 7.0 | 18.0 | 0.00 | 0.00 | 0.00 | 28 | 1017.6 |
| 20260501234118 | 52 | 330 | 11.0 | 18.0 | 0.00 | 0.00 | 0.00 | 27 | 1017.5 |
| 20260501233854 | 52 | 333 | 10.0 | 15.0 | 0.00 | 0.00 | 0.00 | 27 | 1017.6 |
| 20260501233356 | 52 | 326 | 12.0 | 15.0 | 0.00 | 0.00 | 0.00 | 28 | 1017.5 |
| 20260501232618 | 52 | 306 | 7.0 | 14.0 | 0.00 | 0.00 | 0.00 | 23 | 1017.6 |
| 20260501232118 | 53 | 0 | 8.0 | 16.0 | 0.00 | 0.00 | 0.00 | 24 | 1017.4 |
| 20260501231615 | 53 | 0 | 10.0 | 16.0 | 0.00 | 0.00 | 0.00 | 24 | 1017.6 |
| 20260501231115 | 53 | 347 | 12.0 | 16.0 | 0.00 | 0.00 | 0.00 | 27 | 1017.5 |
| 20260501230615 | 53 | 324 | 12.0 | 16.0 | 0.00 | 0.00 | 0.00 | 26 | 1017.6 |
| 20260501230115 | 54 | 0 | 10.0 | 13.0 | 0.00 | 0.00 | 0.00 | 28 | 1017.5 |
| 20260501225615 | 54 | 334 | 5.0 | 15.0 | 0.00 | 0.00 | 0.00 | 28 | 1017.5 |
| 20260501225115 | 53 | 329 | 7.0 | 20.0 | 0.00 | 0.00 | 0.00 | 26 | 1017.6 |
| 20260501224851 | 53 | 310 | 10.0 | 20.0 | 0.00 | 0.00 | 0.00 | 28 | 1017.6 |
| 20260501224115 | 54 | 347 | 13.0 | 20.0 | 0.00 | 0.00 | 0.00 | 28 | 1017.5 |
| 20260501223850 | 55 | 316 | 7.0 | 17.0 | 0.00 | 0.00 | 0.00 | 21 | 1017.5 |
| 20260501223114 | 55 | 0 | 7.0 | 17.0 | 0.00 | 0.00 | 0.00 | 28 | 1017.6 |
| 20260501222615 | 56 | 316 | 9.0 | 15.0 | 0.00 | 0.00 | 0.00 | 29 | 1017.5 |
| 20260501222115 | 55 | 0 | 6.0 | 13.0 | 0.00 | 0.00 | 0.00 | 26 | 1017.6 |
| 20260501221615 | 55 | 341 | 6.0 | 13.0 | 0.00 | 0.00 | 0.00 | 24 | 1017.6 |
| 20260501221115 | 54 | 11 | 6.0 | 11.0 | 0.00 | 0.00 | 0.00 | 26 | 1017.6 |
| 20260501220614 | 54 | 34 | 6.0 | 11.0 | 0.00 | 0.00 | 0.00 | 27 | 1017.7 |
| 20260501220116 | 52 | 0 | 7.0 | 14.0 | 0.00 | 0.00 | 0.00 | 27 | 1017.7 |
| 20260501215612 | 53 | 0 | 10.0 | 16.0 | 0.00 | 0.00 | 0.00 | 28 | 1017.7 |
| 20260501215114 | 51 | 343 | 7.0 | 16.0 | 0.00 | 0.00 | 0.00 | 29 | 1017.9 |
| 20260501214612 | 52 | 0 | 6.0 | 12.0 | 0.00 | 0.00 | 0.00 | 31 | 1017.7 |
| 20260501214112 | 52 | 326 | 2.0 | 11.0 | 0.00 | 0.00 | 0.00 | 28 | 1017.7 |
| 20260501213847 | 53 | 0 | 5.0 | 17.0 | 0.00 | 0.00 | 0.00 | 26 | 1017.9 |
| 20260501213112 | 54 | 0 | 11.0 | 18.0 | 0.00 | 0.00 | 0.00 | 29 | 1017.7 |
| 20260501212608 | 54 | 0 | 12.0 | 18.0 | 0.00 | 0.00 | 0.00 | 24 | 1017.7 |
| 20260501212109 | 54 | 327 | 10.0 | 21.0 | 0.00 | 0.00 | 0.00 | 24 | 1017.9 |
| 20260501211608 | 55 | 344 | 15.0 | 21.0 | 0.00 | 0.00 | 0.00 | 29 | 1017.7 |
| 20260501211109 | 55 | 347 | 13.0 | 19.0 | 0.00 | 0.00 | 0.00 | 29 | 1017.9 |
| 20260501210609 | 54 | 319 | 11.0 | 16.0 | 0.00 | 0.00 | 0.00 | 27 | 1018.0 |
| 20260501210107 | 54 | 296 | 5.0 | 11.0 | 0.00 | 0.00 | 0.00 | 23 | 1018.0 |
| 20260501205607 | 52 | 343 | 8.0 | 15.0 | 0.00 | 0.00 | 0.00 | 35 | 1018.0 |
| 20260501205108 | 52 | 345 | 7.0 | 15.0 | 0.00 | 0.00 | 0.00 | 29 | 1018.1 |
| 20260501204608 | 51 | 23 | 8.0 | 15.0 | 0.00 | 0.00 | 0.00 | 31 | 1018.2 |
| 20260501204108 | 51 | 21 | 6.0 | 12.0 | 0.00 | 0.00 | 0.00 | 30 | 1018.1 |
| 20260501203606 | 52 | 3 | 4.0 | 6.0 | 0.00 | 0.00 | 0.00 | 28 | 1018.1 |
| 20260501203106 | 51 | 350 | 2.0 | 10.0 | 0.00 | 0.00 | 0.00 | 28 | 1018.2 |
| 20260501202608 | 53 | 102 | 4.0 | 15.0 | 0.00 | 0.00 | 0.00 | 23 | 1018.3 |
| 20260501202106 | 52 | 0 | 6.0 | 15.0 | 0.00 | 0.00 | 0.00 | 30 | 1018.3 |
| 20260501201606 | 55 | 0 | 11.0 | 15.0 | 0.00 | 0.00 | 0.00 | 29 | 1018.2 |
| 20260501201106 | 54 | 333 | 2.0 | 9.0 | 0.00 | 0.00 | 0.00 | 30 | 1018.3 |
| 20260501200607 | 54 | 82 | 2.0 | 10.0 | 0.00 | 0.00 | 0.00 | 28 | 1018.3 |
| 20260501195602 | 53 | 75 | 3.0 | 16.0 | 0.00 | 0.00 | 0.00 | 27 | 1018.3 |
| 20260501195104 | 53 | 3 | 8.0 | 16.0 | 0.00 | 0.00 | 0.00 | 33 | 1018.4 |
| 20260501194603 | 52 | 293 | 12.0 | 15.0 | 0.00 | 0.00 | 0.00 | 33 | 1018.4 |
| 20260501194102 | 51 | 316 | 7.0 | 12.0 | 0.00 | 0.00 | 0.00 | 31 | 1018.4 |
| 20260501193839 | 54 | 11 | 7.0 | 13.0 | 0.00 | 0.00 | 0.00 | 30 | 1018.5 |
| 20260501193102 | 53 | 326 | 9.0 | 14.0 | 0.00 | 0.00 | 0.00 | 31 | 1018.4 |
| 20260501192601 | 53 | 275 | 9.0 | 14.0 | 0.00 | 0.00 | 0.00 | 33 | 1018.5 |
| 20260501192337 | 51 | 333 | 10.0 | 15.0 | 0.00 | 0.00 | 0.00 | 32 | 1018.6 |
| 20260501191601 | 50 | 355 | 9.0 | 15.0 | 0.00 | 0.00 | 0.00 | 35 | 1018.5 |
| 20260501191059 | 51 | 275 | 7.0 | 14.0 | 0.00 | 0.00 | 0.00 | 30 | 1018.6 |
| 20260501190558 | 52 | 307 | 5.0 | 14.0 | 0.00 | 0.00 | 0.00 | 31 | 1018.4 |
| 20260501190058 | 52 | 282 | 5.0 | 17.0 | 0.00 | 0.00 | 0.00 | 31 | 1018.5 |
| 20260501185557 | 51 | 262 | 7.0 | 17.0 | 0.00 | 0.00 | 0.00 | 32 | 1018.5 |
| 20260501185057 | 48 | 295 | 8.0 | 17.0 | 0.00 | 0.00 | 0.00 | 38 | 1018.5 |
| 20260501184557 | 49 | 307 | 13.0 | 17.0 | 0.00 | 0.00 | 0.00 | 36 | 1018.6 |